createdAt,value
2023-02-11T00:13:34.451Z,5396.94983277592
2023-02-11T00:20:49.829Z,5332.555183946488
2023-02-11T00:27:11.430Z,5201.84949832776
2023-02-11T00:36:54.069Z,5271.752508361204
2023-02-11T00:47:05.308Z,5096.819397993311
2023-02-11T00:57:45.628Z,4974.6822742474915
2023-02-11T01:05:55.864Z,4966.484949832776
2023-02-11T01:16:38.114Z,4994.698996655518
2023-02-11T01:23:44.617Z,5013.993311036789
2023-02-11T01:34:58.547Z,5016.240802675586
2023-02-11T01:51:53.810Z,4736.799331103679
2023-02-11T01:59:37.218Z,4689.48160535117
2023-02-11T02:09:52.738Z,4529.006688963211
2023-02-11T02:17:03.652Z,4464.531772575251
2023-02-11T02:25:45.729Z,4350.702341137124
2023-02-11T02:32:07.478Z,4281.2307692307695
2023-02-11T02:41:53.751Z,4376.8394648829435
2023-02-11T02:54:52.512Z,4364.066889632107
2023-02-11T03:01:14.181Z,4270.505016722408
2023-02-11T03:09:01.187Z,4259.66889632107
2023-02-11T03:18:28.657Z,4163.598662207358
2023-02-11T03:33:03.290Z,3911.6588628762543
2023-02-11T03:39:25.085Z,3901.6454849498327
2023-02-11T03:45:48.403Z,3746.6889632107022
2023-02-11T03:52:10.941Z,3694.6053511705686
2023-02-11T04:01:21.817Z,3598.1638795986623
2023-02-11T04:07:44.116Z,3523.7558528428094
2023-02-11T04:14:06.528Z,3488.3779264214045
2023-02-11T04:20:27.932Z,3320.3177257525085
2023-02-11T04:26:49.967Z,3229.3946488294314
2023-02-11T04:38:16.595Z,3292.153846153846
2023-02-11T04:44:38.377Z,3238.655518394649
2023-02-11T04:50:59.941Z,3115.294314381271
2023-02-11T04:57:22.297Z,3208.5551839464883
2023-02-11T05:03:44.831Z,3124.494983277592
2023-02-11T05:10:07.826Z,3173.8996655518395
2023-02-11T05:21:03.444Z,3139.936454849498
2023-02-11T05:27:25.972Z,3056.9297658862874
2023-02-11T05:35:36.733Z,2964.3411371237457
2023-02-11T05:44:33.034Z,2915.8996655518395
2023-02-11T05:50:55.829Z,3006.903010033445
2023-02-11T06:02:01.852Z,2930.7491638795987
2023-02-11T06:12:15.948Z,2904.6923076923076
2023-02-11T06:27:10.223Z,2800.0133779264215
2023-02-11T06:33:33.602Z,2859.0
2023-02-11T06:39:56.374Z,2805.0200668896323
2023-02-11T06:51:50.278Z,2842.334448160535
2023-02-11T06:59:05.129Z,2986.85618729097
2023-02-11T07:05:27.373Z,2944.7458193979933
2023-02-11T07:11:50.264Z,3186.752508361204
2023-02-11T07:18:14.854Z,2913.0
2023-02-11T07:29:45.723Z,3023.3578595317726
2023-02-11T07:44:51.566Z,2786.959866220736
2023-02-11T07:51:16.212Z,2909.277591973244
2023-02-11T07:57:41.408Z,2853.943143812709
2023-02-11T08:04:05.687Z,2744.1872909698995
2023-02-11T08:10:30.672Z,2728.153846153846
2023-02-11T08:16:55.289Z,2795.3578595317726
2023-02-11T08:23:19.862Z,2717.628762541806
2023-02-11T08:29:46.545Z,2679.0802675585282
2023-02-11T08:36:28.907Z,2625.983277591973
2023-02-11T08:54:50.594Z,2699.9498327759197
2023-02-11T09:01:29.897Z,2594.127090301003
2023-02-11T09:13:30.103Z,2609.277591973244
2023-02-11T09:19:54.683Z,2581.2842809364547
2023-02-11T09:26:19.016Z,2464.9464882943143
2023-02-11T09:32:43.178Z,2475.170568561873
2023-02-11T09:39:06.945Z,2465.1872909698995
2023-02-11T09:45:30.993Z,2481.4816053511704
2023-02-11T09:56:43.316Z,3754.494983277592
2023-02-11T10:03:22.818Z,2738.0367892976587
2023-02-11T10:09:59.292Z,2520.872909698997
2023-02-11T10:16:23.391Z,2549.809364548495
2023-02-11T10:22:47.778Z,2577.6822742474915
2023-02-11T10:29:12.125Z,2577.8026755852843
2023-02-11T10:35:36.761Z,2608.5551839464883
2023-02-11T10:42:01.565Z,2543.076923076923
2023-02-11T10:48:25.658Z,2545.7759197324413
2023-02-11T10:54:53.552Z,2632.7658862876256
2023-02-11T11:01:24.734Z,2557.936454849498
2023-02-11T11:07:50.253Z,2519.969899665552
2023-02-11T11:14:15.765Z,2366.799331103679
2023-02-11T11:21:11.917Z,2526.742474916388
2023-02-11T11:27:36.461Z,2372.1070234113713
2023-02-11T11:34:00.522Z,2445.351170568562
2023-02-11T11:41:01.100Z,2410.1939799331103
2023-02-11T11:47:24.683Z,2589.030100334448
2023-02-11T11:53:49.443Z,2899.8060200668897
2023-02-11T12:01:22.392Z,2585.849498327759
2023-02-11T12:11:49.900Z,2357.9096989966556
2023-02-11T12:23:23.288Z,2327.628762541806
2023-02-11T12:29:48.574Z,2215.3244147157193
2023-02-11T12:36:13.875Z,2147.1070234113713
2023-02-11T12:42:38.665Z,1957.4046822742475
2023-02-11T12:49:03.663Z,1983.5217391304348
2023-02-11T12:55:28.615Z,2048.8896321070233
2023-02-11T13:02:17.451Z,1942.3846153846155
2023-02-11T13:21:14.176Z,1914.8829431438128
2023-02-11T13:27:39.646Z,2149.9464882943143
2023-02-11T13:34:04.994Z,1906.5351170568563
2023-02-11T13:40:30.120Z,1865.056856187291
2023-02-11T13:46:55.523Z,2014.715719063545
2023-02-11T13:53:20.139Z,1962.7926421404682
2023-02-11T13:59:45.037Z,2225.628762541806
2023-02-11T14:06:09.112Z,2194.5551839464883
2023-02-11T14:13:50.099Z,2275.9163879598664
2023-02-11T14:20:13.776Z,1916.3277591973244
2023-02-11T14:26:47.960Z,1882.0334448160536
2023-02-11T14:33:11.751Z,1866.190635451505
2023-02-11T14:47:47.905Z,1894.9063545150502
2023-02-11T14:59:15.576Z,1908.2608695652175
2023-02-11T15:05:40.491Z,1869.38127090301
2023-02-11T15:16:43.063Z,1943.4581939799332
2023-02-11T15:23:07.764Z,2073.2608695652175
2023-02-11T15:29:32.327Z,1970.5183946488294
2023-02-11T15:35:56.870Z,2154.43143812709
2023-02-11T15:42:52.571Z,2460.4113712374583
2023-02-11T15:52:12.972Z,2178.2909698996655
2023-02-11T15:58:38.499Z,1902.6722408026756
2023-02-11T16:05:57.272Z,1850.448160535117
2023-02-11T16:12:21.765Z,1889.6789297658863
2023-02-11T16:18:52.057Z,1849.4548494983278
2023-02-11T16:25:21.491Z,1912.4247491638796
2023-02-11T16:31:44.470Z,1773.3411371237457
2023-02-11T16:43:26.008Z,1847.408026755853
2023-02-11T16:49:48.861Z,1785.71237458194
2023-02-11T17:00:06.972Z,1687.0434782608695
2023-02-11T17:06:28.877Z,1929.1304347826087
2023-02-11T17:12:51.078Z,1874.4782608695652
2023-02-11T17:19:14.582Z,1754.3578595317726
2023-02-11T17:26:33.939Z,1686.531772575251
2023-02-11T17:40:57.148Z,1482.953177257525
2023-02-11T17:47:18.490Z,1612.9364548494984
2023-02-11T17:56:13.318Z,1393.2541806020067
2023-02-11T18:02:36.037Z,1504.6655518394648
2023-02-11T18:13:34.575Z,2096.6588628762543
2023-02-11T18:19:55.534Z,1746.5418060200668
2023-02-11T18:26:17.027Z,1625.1772575250836
2023-02-11T18:32:38.629Z,1538.3076923076924
2023-02-11T18:38:59.938Z,1457.046822742475
2023-02-11T18:49:15.397Z,1864.7056856187291
2023-02-11T18:55:37.334Z,2012.1471571906354
2023-02-11T19:01:59.571Z,1905.6722408026756
2023-02-11T19:08:21.069Z,1971.2408026755852
2023-02-11T19:20:17.616Z,1872.6923076923076
2023-02-11T19:29:23.821Z,1645.4147157190635
2023-02-11T19:35:45.889Z,1479.591973244147
2023-02-11T19:42:09.824Z,1499.3678929765886
2023-02-11T19:48:42.983Z,1443.943143812709
2023-02-11T19:55:04.795Z,1492.0735785953177
2023-02-11T20:07:00.285Z,1608.8929765886287
2023-02-11T20:13:21.812Z,1611.0501672240803
2023-02-11T20:19:43.556Z,1551.4113712374583
2023-02-11T20:26:05.384Z,1665.7926421404682
2023-02-11T20:33:14.850Z,1498.7759197324415
2023-02-11T20:39:37.064Z,1430.056856187291
2023-02-11T20:50:53.246Z,1470.6822742474917
2023-02-11T21:02:07.819Z,1492.9264214046823
2023-02-11T21:08:37.366Z,1538.257525083612
2023-02-11T21:15:07.216Z,1713.4113712374583
2023-02-11T21:24:15.777Z,1678.2140468227424
2023-02-11T21:30:44.186Z,1534.0334448160536
2023-02-11T21:37:10.639Z,1683.6120401337794
2023-02-11T21:43:40.885Z,1560.0802675585285
2023-02-11T21:53:45.671Z,1422.1204013377926
2023-02-11T22:00:13.057Z,1340.5886287625417
2023-02-11T22:06:41.968Z,1369.5953177257525
2023-02-11T22:13:08.174Z,1364.8996655518395
2023-02-11T22:19:36.919Z,1411.8862876254182
2023-02-11T22:36:27.661Z,1565.6688963210702
2023-02-11T22:56:31.278Z,1531.324414715719
2023-02-11T23:03:00.935Z,1485.7826086956522
2023-02-11T23:12:08.083Z,1452.4314381270904
2023-02-11T23:21:06.001Z,1521.8127090301002
2023-02-11T23:27:27.593Z,1576.9163879598661
2023-02-11T23:33:49.679Z,1598.2173913043478
2023-02-11T23:40:11.019Z,1578.8929765886287
2023-02-11T23:55:00.043Z,1636.7357859531774
